Time;durP1;ratioP1;P1;durP2;ratioP2;P2;SDS_P1;SDS_P2;PMS_P1;PMS_P2;Temp;Humidity;BMP_temperature;BMP_pressure;BME280_temperature;BME280_humidity;BME280_pressure;Samples;Min_cycle;Max_cycle;Signal;HPM_P1;HPM_P2
2021/01/30 00:01:20;;;;;;;;;;;10.60;99.90;;;;;;5088119;28;20266;-74
2021/01/30 00:04:23;;;;;;;;;;;10.60;99.90;;;;;;5087046;28;20363;-72
2021/01/30 00:07:29;;;;;;;;;;;10.60;99.90;;;;;;5089495;28;19923;-73
2021/01/30 00:10:33;;;;;;;;;;;10.50;99.90;;;;;;5089150;28;20302;-73
2021/01/30 00:13:37;;;;;;;;;;;10.50;99.90;;;;;;5089212;28;19915;-73
2021/01/30 00:16:42;;;;;;;;;;;10.50;99.90;;;;;;5089357;28;19923;-73
2021/01/30 00:19:46;;;;;;;;;;;10.60;99.90;;;;;;5090834;28;19938;-73
2021/01/30 00:22:50;;;;;;;;;;;10.60;99.90;;;;;;5093056;28;20267;-73
2021/01/30 00:25:54;;;;;;;;;;;10.60;99.90;;;;;;5096295;28;19919;-72
2021/01/30 00:28:58;;;;;;;;;;;10.60;99.90;;;;;;5088160;28;19919;-73
2021/01/30 00:32:02;;;;;;;;;;;10.60;99.90;;;;;;5087584;28;19927;-73
2021/01/30 00:35:07;;;;;;;;;;;10.60;99.90;;;;;;5085223;28;19923;-73
2021/01/30 00:38:11;;;;;;;;;;;10.50;99.90;;;;;;5081918;28;19919;-73
2021/01/30 00:41:16;;;;;;;;;;;10.50;99.90;;;;;;5091367;28;19912;-72
2021/01/30 00:44:20;;;;;;;;;;;10.40;99.90;;;;;;5092599;28;19923;-73
2021/01/30 00:47:24;;;;;;;;;;;10.40;99.90;;;;;;5082611;28;19927;-73
2021/01/30 00:50:28;;;;;;;;;;;10.40;99.90;;;;;;5091181;28;19923;-73
2021/01/30 00:53:33;;;;;;;;;;;10.30;99.90;;;;;;5091086;28;19912;-73
2021/01/30 00:56:37;;;;;;;;;;;10.30;99.90;;;;;;5091547;28;19923;-73
2021/01/30 00:59:42;;;;;;;;;;;10.30;99.90;;;;;;5093272;28;20366;-74
2021/01/30 01:02:46;;;;;;;;;;;10.30;99.90;;;;;;5092357;28;19923;-73
2021/01/30 01:05:50;;;;;;;;;;;10.20;99.90;;;;;;5091831;28;19919;-72
2021/01/30 01:08:55;;;;;;;;;;;10.20;99.90;;;;;;5092386;28;19926;-72
2021/01/30 01:11:59;;;;;;;;;;;10.20;99.90;;;;;;5091768;28;19931;-73
2021/01/30 01:15:05;;;;;;;;;;;10.10;99.90;;;;;;5091308;28;20483;-73
2021/01/30 01:18:09;;;;;;;;;;;10.10;99.90;;;;;;5084572;28;19919;-73
2021/01/30 01:21:13;;;;;;;;;;;10.10;99.90;;;;;;5087648;28;20282;-73
2021/01/30 01:24:18;;;;;;;;;;;10.10;99.90;;;;;;5092740;28;19919;-73
2021/01/30 01:27:22;;;;;;;;;;;10.00;99.90;;;;;;5092680;28;19923;-73
2021/01/30 01:30:26;;;;;;;;;;;10.00;99.90;;;;;;5090260;28;19926;-73
2021/01/30 01:33:31;;;;;;;;;;;10.10;99.90;;;;;;5092032;28;19923;-73
2021/01/30 01:36:36;;;;;;;;;;;10.00;99.90;;;;;;5081301;28;19923;-73
2021/01/30 01:39:40;;;;;;;;;;;10.10;99.90;;;;;;5091937;28;19942;-73
2021/01/30 01:42:44;;;;;;;;;;;10.00;99.90;;;;;;5091671;28;19919;-73
2021/01/30 01:45:59;;;;;;;;;;;10.10;99.90;;;;;;5086958;28;19923;-73
2021/01/30 01:49:10;;;;;;;;;;;10.00;99.90;;;;;;5089252;28;19919;-73
2021/01/30 01:52:21;;;;;;;;;;;9.90;99.90;;;;;;5091371;28;19923;-73
2021/01/30 01:55:26;;;;;;;;;;;9.80;99.90;;;;;;5090507;28;19923;-73
2021/01/30 01:58:33;;;;;;;;;;;9.80;99.90;;;;;;5089877;28;19927;-73
2021/01/30 02:01:38;;;;;;;;;;;9.70;99.90;;;;;;5085852;28;19923;-73
2021/01/30 02:04:54;;;;;;;;;;;9.80;99.90;;;;;;5091437;28;19920;-73
2021/01/30 02:08:01;;;;;;;;;;;9.80;99.90;;;;;;5091802;28;20606;-73
2021/01/30 02:11:06;;;;;;;;;;;9.80;99.90;;;;;;5090615;28;19920;-72
2021/01/30 02:14:10;;;;;;;;;;;9.70;99.90;;;;;;5090960;28;19923;-73
2021/01/30 02:17:21;;;;;;;;;;;9.60;99.90;;;;;;5081375;28;19923;-73
2021/01/30 02:20:31;;;;;;;;;;;9.60;99.90;;;;;;5079651;28;19920;-73
2021/01/30 02:23:54;;;;;;;;;;;9.70;99.90;;;;;;5091325;28;19939;-73
2021/01/30 02:27:04;;;;;;;;;;;9.70;99.90;;;;;;5113159;27;20298;-73
2021/01/30 02:30:11;;;;;;;;;;;9.60;99.90;;;;;;5089679;28;19920;-73
2021/01/30 02:33:18;;;;;;;;;;;9.60;99.90;;;;;;5090024;28;19919;-73
2021/01/30 02:36:58;;;;;;;;;;;9.70;99.90;;;;;;5085540;28;19923;-73
2021/01/30 02:40:06;;;;;;;;;;;9.80;99.90;;;;;;5028598;28;19920;-73
2021/01/30 02:43:12;;;;;;;;;;;9.80;99.90;;;;;;5078814;28;19931;-73
2021/01/30 02:46:28;;;;;;;;;;;9.90;99.90;;;;;;5080926;28;19923;-72
2021/01/30 02:49:35;;;;;;;;;;;9.90;99.90;;;;;;5083921;28;19927;-73
2021/01/30 02:52:39;;;;;;;;;;;9.80;99.90;;;;;;5090780;28;20287;-73
2021/01/30 02:55:44;;;;;;;;;;;9.90;99.90;;;;;;5090289;28;20279;-73
2021/01/30 02:59:03;;;;;;;;;;;10.00;99.90;;;;;;5089536;28;19934;-73
2021/01/30 03:02:07;;;;;;;;;;;9.90;99.90;;;;;;5081121;28;19919;-73
2021/01/30 03:05:12;;;;;;;;;;;9.90;99.90;;;;;;5080693;28;19919;-74
2021/01/30 03:08:19;;;;;;;;;;;10.00;99.90;;;;;;5082718;28;20381;-73
2021/01/30 03:11:32;;;;;;;;;;;9.90;99.90;;;;;;5086954;28;19919;-72
2021/01/30 03:14:52;;;;;;;;;;;9.90;99.90;;;;;;5091590;28;20313;-73
2021/01/30 03:17:58;;;;;;;;;;;9.90;99.90;;;;;;5089842;28;19923;-73
2021/01/30 03:21:07;;;;;;;;;;;9.90;99.90;;;;;;5088632;28;19919;-73
2021/01/30 03:24:11;;;;;;;;;;;9.90;99.90;;;;;;5082639;28;19920;-73
2021/01/30 03:27:17;;;;;;;;;;;9.90;99.90;;;;;;5080444;28;19927;-73
2021/01/30 03:30:21;;;;;;;;;;;9.90;99.90;;;;;;5086662;28;19923;-73
2021/01/30 03:33:26;;;;;;;;;;;10.00;99.90;;;;;;5091032;28;19919;-72
2021/01/30 03:36:30;;;;;;;;;;;9.90;99.90;;;;;;5079580;28;19923;-73
2021/01/30 03:39:35;;;;;;;;;;;9.90;99.90;;;;;;5090788;28;19923;-73
2021/01/30 03:42:39;;;;;;;;;;;9.90;99.90;;;;;;5089335;28;19923;-73
2021/01/30 03:45:43;;;;;;;;;;;9.90;99.90;;;;;;5087007;28;19923;-72
2021/01/30 03:48:47;;;;;;;;;;;9.90;99.90;;;;;;5084941;28;20559;-73
2021/01/30 03:51:51;;;;;;;;;;;9.90;99.90;;;;;;5090130;28;19927;-72
2021/01/30 03:54:56;;;;;;;;;;;9.90;99.90;;;;;;5083787;28;19922;-73
2021/01/30 03:58:00;;;;;;;;;;;9.80;99.90;;;;;;5090132;28;20377;-72
2021/01/30 04:01:04;;;;;;;;;;;9.80;99.90;;;;;;5091471;28;19927;-72
2021/01/30 04:04:09;;;;;;;;;;;9.80;99.90;;;;;;5094056;28;19935;-73
2021/01/30 04:07:13;;;;;;;;;;;9.70;99.90;;;;;;5093602;28;19919;-72
2021/01/30 04:10:19;;;;;;;;;;;9.60;99.90;;;;;;5092890;28;19923;-73
2021/01/30 04:13:23;;;;;;;;;;;9.40;99.90;;;;;;5080244;28;19923;-74
2021/01/30 04:16:27;;;;;;;;;;;9.30;99.90;;;;;;5093073;28;19927;-73
2021/01/30 04:19:31;;;;;;;;;;;9.10;99.90;;;;;;5092962;28;19923;-73
2021/01/30 04:22:35;;;;;;;;;;;9.00;99.90;;;;;;5093141;28;20398;-73
2021/01/30 04:25:40;;;;;;;;;;;8.90;99.90;;;;;;5086188;28;20425;-74
2021/01/30 04:28:43;;;;;;;;;;;8.90;99.90;;;;;;5092369;28;19920;-73
2021/01/30 04:31:52;;;;;;;;;;;8.80;99.90;;;;;;5091535;28;19919;-73
2021/01/30 04:34:56;;;;;;;;;;;8.80;99.90;;;;;;5083452;28;19923;-73
2021/01/30 04:38:00;;;;;;;;;;;8.80;99.90;;;;;;5093713;28;19927;-72
2021/01/30 04:41:17;;;;;;;;;;;8.90;99.90;;;;;;5091345;28;19919;-73
2021/01/30 04:44:24;;;;;;;;;;;8.80;99.90;;;;;;5091773;28;19923;-73
2021/01/30 04:47:31;;;;;;;;;;;8.70;99.90;;;;;;5092373;28;19923;-73
2021/01/30 04:50:53;;;;;;;;;;;8.60;99.90;;;;;;5091998;28;19931;-73
2021/01/30 04:54:08;;;;;;;;;;;8.50;99.90;;;;;;5092693;28;19920;-72
2021/01/30 04:57:17;;;;;;;;;;;8.40;99.90;;;;;;5092700;28;19922;-72
2021/01/30 05:00:21;;;;;;;;;;;8.30;99.90;;;;;;5108033;27;20271;-73
2021/01/30 05:03:25;;;;;;;;;;;8.20;99.90;;;;;;5091104;28;19919;-74
2021/01/30 05:06:35;;;;;;;;;;;8.10;99.90;;;;;;5093147;28;19923;-73
2021/01/30 05:09:44;;;;;;;;;;;8.00;99.90;;;;;;5092775;28;19919;-72
2021/01/30 05:12:52;;;;;;;;;;;7.90;99.90;;;;;;5090888;28;20390;-73
2021/01/30 05:16:01;;;;;;;;;;;7.90;99.90;;;;;;5091473;28;19931;-73
2021/01/30 05:19:08;;;;;;;;;;;7.80;99.90;;;;;;5084865;28;19923;-73
2021/01/30 05:22:14;;;;;;;;;;;7.80;99.90;;;;;;5100190;28;19919;-73
2021/01/30 05:25:20;;;;;;;;;;;7.80;99.90;;;;;;5079039;28;20386;-73
2021/01/30 05:28:27;;;;;;;;;;;7.70;99.90;;;;;;5092826;28;20263;-72
2021/01/30 05:31:50;;;;;;;;;;;7.70;99.90;;;;;;5082732;28;19928;-73
2021/01/30 05:34:57;;;;;;;;;;;7.60;99.90;;;;;;5091839;28;19919;-73
2021/01/30 05:38:05;;;;;;;;;;;7.60;99.90;;;;;;5079050;28;19927;-73
2021/01/30 05:41:22;;;;;;;;;;;7.60;99.90;;;;;;5090866;28;19923;-73
2021/01/30 05:44:35;;;;;;;;;;;7.60;99.90;;;;;;5091563;28;19923;-73
2021/01/30 05:47:40;;;;;;;;;;;7.50;99.90;;;;;;5079002;28;19927;-73
2021/01/30 05:50:44;;;;;;;;;;;7.50;99.90;;;;;;5088180;28;19927;-73
2021/01/30 05:53:48;;;;;;;;;;;7.60;99.90;;;;;;5091575;28;19923;-73
2021/01/30 05:56:52;;;;;;;;;;;7.40;99.90;;;;;;5081181;28;19927;-72
2021/01/30 05:59:58;;;;;;;;;;;7.40;99.90;;;;;;5079201;28;19923;-72
2021/01/30 06:03:02;;;;;;;;;;;7.40;99.90;;;;;;5091626;28;19920;-72
2021/01/30 06:06:08;;;;;;;;;;;7.30;99.90;;;;;;5091610;28;19970;-73
2021/01/30 06:09:29;;;;;;;;;;;7.30;99.90;;;;;;5092462;28;19927;-73
2021/01/30 06:12:36;;;;;;;;;;;7.20;99.90;;;;;;5090294;28;19942;-73
2021/01/30 06:15:43;;;;;;;;;;;7.10;99.90;;;;;;5089953;28;20401;-73
2021/01/30 06:18:47;;;;;;;;;;;7.00;99.90;;;;;;5080217;28;19939;-73
2021/01/30 06:22:22;;;;;;;;;;;7.00;99.90;;;;;;5081823;28;20703;-73
2021/01/30 06:25:31;;;;;;;;;;;7.00;99.90;;;;;;5088493;28;19982;-73
2021/01/30 06:28:39;;;;;;;;;;;7.00;99.90;;;;;;5087970;28;19927;-73
2021/01/30 06:31:44;;;;;;;;;;;7.10;99.90;;;;;;5086947;28;19927;-72
2021/01/30 06:34:54;;;;;;;;;;;7.20;99.90;;;;;;5088691;28;19927;-73
2021/01/30 06:38:37;;;;;;;;;;;7.30;99.90;;;;;;5088214;28;19939;-73
2021/01/30 06:41:42;;;;;;;;;;;7.30;99.90;;;;;;5042478;28;19920;-73
2021/01/30 06:44:46;;;;;;;;;;;7.30;99.90;;;;;;5045594;28;20003;-72
2021/01/30 06:47:52;;;;;;;;;;;7.30;99.90;;;;;;5086064;28;19935;-73
2021/01/30 06:50:56;;;;;;;;;;;7.30;99.90;;;;;;5085508;28;20461;-72
2021/01/30 06:54:20;;;;;;;;;;;7.40;99.90;;;;;;5086280;28;19931;-73
2021/01/30 06:57:26;;;;;;;;;;;7.40;99.90;;;;;;5086822;28;19927;-73
2021/01/30 07:00:31;;;;;;;;;;;7.40;99.90;;;;;;5082946;28;19939;-73
2021/01/30 07:03:38;;;;;;;;;;;7.50;99.90;;;;;;5085497;28;19923;-73
2021/01/30 07:06:51;;;;;;;;;;;7.60;99.90;;;;;;5078113;28;19928;-73
2021/01/30 07:10:01;;;;;;;;;;;7.60;99.90;;;;;;5081317;28;19920;-73
2021/01/30 07:13:14;;;;;;;;;;;7.70;99.90;;;;;;5107985;27;19923;-73
2021/01/30 07:16:37;;;;;;;;;;;7.80;99.90;;;;;;5085903;28;19923;-73
2021/01/30 07:19:53;;;;;;;;;;;8.10;99.90;;;;;;5087205;28;19931;-73
2021/01/30 07:23:03;;;;;;;;;;;8.30;99.90;;;;;;5087583;28;19934;-74
2021/01/30 07:26:19;;;;;;;;;;;8.40;99.90;;;;;;5086595;28;19923;-73
2021/01/30 07:29:41;;;;;;;;;;;8.90;99.90;;;;;;5095603;28;19923;-73
2021/01/30 07:32:55;;;;;;;;;;;9.20;99.90;;;;;;5098525;28;19922;-73
2021/01/30 07:36:02;;;;;;;;;;;9.30;99.90;;;;;;5097821;28;19927;-74
2021/01/30 07:39:14;;;;;;;;;;;9.60;99.90;;;;;;5099730;28;19927;-73
2021/01/30 07:42:18;;;;;;;;;;;9.90;99.90;;;;;;5095769;28;20381;-74
2021/01/30 07:45:34;;;;;;;;;;;9.80;99.90;;;;;;5095130;28;19927;-73
2021/01/30 07:48:58;;;;;;;;;;;8.70;99.90;;;;;;5087987;28;19923;-73
2021/01/30 07:52:05;;;;;;;;;;;8.70;99.90;;;;;;5086475;28;19935;-73
2021/01/30 07:55:10;;;;;;;;;;;8.50;99.90;;;;;;5095985;28;19931;-73
2021/01/30 07:58:20;;;;;;;;;;;8.50;99.90;;;;;;5091034;28;19923;-73
2021/01/30 08:01:41;;;;;;;;;;;8.60;99.90;;;;;;5093861;28;19923;-73
2021/01/30 08:05:02;;;;;;;;;;;8.60;99.90;;;;;;5094466;28;19919;-73
2021/01/30 08:08:24;;;;;;;;;;;8.70;99.90;;;;;;5092199;28;20290;-73
2021/01/30 08:11:33;;;;;;;;;;;8.80;99.90;;;;;;5094898;28;20378;-73
2021/01/30 08:15:05;;;;;;;;;;;9.10;99.90;;;;;;5094461;28;19919;-74
2021/01/30 08:18:27;;;;;;;;;;;9.40;99.90;;;;;;5093236;28;19927;-73
2021/01/30 08:21:47;;;;;;;;;;;9.90;99.90;;;;;;5099625;28;20285;-73
2021/01/30 08:24:55;;;;;;;;;;;10.80;99.90;;;;;;5096235;28;19934;-73
2021/01/30 08:28:13;;;;;;;;;;;12.20;99.90;;;;;;5099017;28;19919;-72
2021/01/30 08:31:31;;;;;;;;;;;12.10;99.90;;;;;;5093567;28;19920;-73
2021/01/30 08:34:36;;;;;;;;;;;12.20;99.90;;;;;;5099637;28;19931;-73
2021/01/30 08:37:40;;;;;;;;;;;12.10;99.90;;;;;;5090975;28;19931;-72
2021/01/30 08:40:52;;;;;;;;;;;11.80;99.90;;;;;;5091720;28;19920;-73
2021/01/30 08:43:56;;;;;;;;;;;11.80;99.90;;;;;;5093172;28;19939;-73
2021/01/30 08:47:05;;;;;;;;;;;11.70;99.90;;;;;;5090347;28;19912;-73
2021/01/30 08:50:35;;;;;;;;;;;11.90;99.90;;;;;;5092225;28;20327;-73
2021/01/30 08:53:40;;;;;;;;;;;12.10;99.90;;;;;;5084547;28;19943;-73
2021/01/30 08:56:48;;;;;;;;;;;12.30;99.90;;;;;;5086707;28;19986;-73
2021/01/30 08:59:53;;;;;;;;;;;12.20;99.90;;;;;;5090762;28;19927;-74
2021/01/30 09:02:58;;;;;;;;;;;12.50;99.90;;;;;;5093532;28;19935;-73
2021/01/30 09:06:03;;;;;;;;;;;12.70;99.90;;;;;;5093677;28;19935;-73
2021/01/30 09:09:08;;;;;;;;;;;12.70;99.90;;;;;;5090946;28;20286;-73
2021/01/30 09:12:32;;;;;;;;;;;12.60;99.90;;;;;;5092313;28;19916;-74
2021/01/30 09:15:40;;;;;;;;;;;12.40;99.90;;;;;;5086719;28;19923;-74
2021/01/30 09:18:47;;;;;;;;;;;11.30;99.90;;;;;;5092016;28;19931;-74
2021/01/30 09:22:11;;;;;;;;;;;10.60;99.90;;;;;;5081773;28;19919;-73
2021/01/30 09:25:28;;;;;;;;;;;10.70;99.90;;;;;;5092624;28;20309;-73
2021/01/30 09:28:32;;;;;;;;;;;10.50;99.90;;;;;;5091709;28;19923;-73
2021/01/30 09:31:37;;;;;;;;;;;10.40;99.90;;;;;;5090703;28;20374;-74
2021/01/30 09:34:47;;;;;;;;;;;10.40;99.90;;;;;;5086339;28;19919;-73
2021/01/30 09:37:51;;;;;;;;;;;10.60;99.90;;;;;;5089984;28;19923;-73
2021/01/30 09:41:14;;;;;;;;;;;10.80;99.90;;;;;;5090506;28;19923;-73
2021/01/30 09:44:18;;;;;;;;;;;11.10;99.90;;;;;;5093085;28;19923;-72
2021/01/30 09:47:22;;;;;;;;;;;11.30;99.90;;;;;;5089981;28;19927;-72
2021/01/30 09:50:34;;;;;;;;;;;11.40;99.90;;;;;;5088835;28;19920;-73
2021/01/30 09:53:44;;;;;;;;;;;11.60;99.90;;;;;;5089707;28;19916;-74
2021/01/30 09:56:48;;;;;;;;;;;12.00;99.90;;;;;;5087929;28;19927;-74
2021/01/30 10:00:15;;;;;;;;;;;12.50;99.90;;;;;;5070236;28;20485;-74
2021/01/30 10:03:21;;;;;;;;;;;15.50;99.90;;;;;;5086732;28;19931;-74
2021/01/30 10:06:32;;;;;;;;;;;19.10;99.90;;;;;;5087284;28;19931;-74
2021/01/30 10:09:41;;;;;;;;;;;21.60;99.90;;;;;;5088449;28;19923;-73
2021/01/30 10:12:45;;;;;;;;;;;24.10;98.90;;;;;;5089569;28;19919;-74
2021/01/30 10:15:54;;;;;;;;;;;24.60;96.40;;;;;;5089681;28;19927;-74
2021/01/30 10:18:57;;;;;;;;;;;26.60;93.30;;;;;;5085829;28;19919;-74
2021/01/30 10:22:32;;;;;;;;;;;27.10;86.20;;;;;;5090168;28;19915;-74
2021/01/30 10:25:36;;;;;;;;;;;26.70;80.60;;;;;;5083592;28;19942;-74
2021/01/30 10:28:54;;;;;;;;;;;27.60;81.20;;;;;;5090199;28;19939;-75
2021/01/30 10:32:02;;;;;;;;;;;29.50;74.90;;;;;;5089518;28;19919;-72
2021/01/30 10:35:26;;;;;;;;;;;29.40;66.60;;;;;;5090848;28;19919;-74
2021/01/30 10:38:31;;;;;;;;;;;26.30;67.90;;;;;;5091865;28;19923;-73
2021/01/30 10:41:35;;;;;;;;;;;21.10;77.80;;;;;;5085087;28;19916;-74
2021/01/30 10:44:43;;;;;;;;;;;21.90;85.10;;;;;;5090439;28;20498;-74
2021/01/30 10:47:52;;;;;;;;;;;23.20;81.30;;;;;;5079664;28;19920;-74
2021/01/30 10:51:02;;;;;;;;;;;24.80;79.40;;;;;;5078269;28;19920;-74
2021/01/30 10:54:26;;;;;;;;;;;26.90;74.30;;;;;;5090440;28;19919;-73
2021/01/30 10:57:30;;;;;;;;;;;26.80;70.40;;;;;;5088622;28;19927;-74
2021/01/30 11:00:34;;;;;;;;;;;25.70;73.10;;;;;;5088810;28;19927;-73
2021/01/30 11:03:43;;;;;;;;;;;24.80;72.00;;;;;;5091054;28;19923;-74
2021/01/30 11:06:48;;;;;;;;;;;22.40;77.80;;;;;;5089789;28;19916;-74
2021/01/30 11:09:53;;;;;;;;;;;26.10;77.30;;;;;;5079669;28;19916;-74
2021/01/30 11:13:12;;;;;;;;;;;29.20;70.20;;;;;;5078204;28;19919;-74
2021/01/30 11:16:16;;;;;;;;;;;31.90;64.50;;;;;;5083228;28;19965;-74
2021/01/30 11:19:20;;;;;;;;;;;33.90;60.70;;;;;;5089935;28;19923;-74
2021/01/30 11:22:25;;;;;;;;;;;34.10;58.10;;;;;;5099838;28;19923;-74
2021/01/30 11:25:31;;;;;;;;;;;34.80;55.30;;;;;;5097239;28;19942;-73
2021/01/30 11:28:35;;;;;;;;;;;35.50;53.40;;;;;;5082216;28;19935;-73
2021/01/30 11:31:39;;;;;;;;;;;35.30;52.10;;;;;;5085673;28;19923;-74
2021/01/30 11:34:44;;;;;;;;;;;33.60;52.60;;;;;;5090205;28;19935;-73
2021/01/30 11:37:48;;;;;;;;;;;30.40;54.60;;;;;;5089340;28;19927;-73
2021/01/30 11:40:54;;;;;;;;;;;24.10;58.40;;;;;;5078512;28;19916;-73
2021/01/30 11:43:59;;;;;;;;;;;22.10;66.20;;;;;;5077365;28;20398;-72
2021/01/30 11:47:03;;;;;;;;;;;20.50;70.10;;;;;;5088451;28;19919;-74
2021/01/30 11:50:08;;;;;;;;;;;19.70;72.40;;;;;;5089627;28;19919;-74
2021/01/30 11:53:18;;;;;;;;;;;18.00;79.10;;;;;;5085668;28;19923;-73
2021/01/30 11:56:40;;;;;;;;;;;16.90;89.40;;;;;;5091552;28;19939;-73
2021/01/30 11:59:45;;;;;;;;;;;16.80;93.80;;;;;;5087058;28;20359;-73
2021/01/30 12:02:48;;;;;;;;;;;16.90;95.10;;;;;;5077842;28;19994;-73
2021/01/30 12:05:53;;;;;;;;;;;16.70;95.50;;;;;;5088630;28;19990;-73
2021/01/30 12:08:57;;;;;;;;;;;17.10;97.70;;;;;;5089191;28;19939;-73
2021/01/30 12:12:02;;;;;;;;;;;18.00;97.40;;;;;;5089159;28;19919;-74
2021/01/30 12:15:06;;;;;;;;;;;18.90;96.70;;;;;;5092767;28;19919;-74
2021/01/30 12:18:11;;;;;;;;;;;19.20;93.10;;;;;;5096237;28;19916;-74
2021/01/30 12:21:16;;;;;;;;;;;19.30;95.20;;;;;;5092938;28;19919;-73
2021/01/30 12:24:20;;;;;;;;;;;19.90;93.20;;;;;;5085679;28;19932;-73
2021/01/30 12:27:24;;;;;;;;;;;19.00;92.20;;;;;;5100132;28;19919;-74
2021/01/30 12:30:30;;;;;;;;;;;18.70;94.30;;;;;;5083311;28;19919;-73
2021/01/30 12:33:34;;;;;;;;;;;17.90;94.30;;;;;;5093947;28;19923;-73
2021/01/30 12:36:37;;;;;;;;;;;17.20;95.40;;;;;;5092850;28;20385;-74
2021/01/30 12:39:42;;;;;;;;;;;17.00;98.20;;;;;;5092677;28;19912;-73
2021/01/30 12:42:47;;;;;;;;;;;17.30;99.10;;;;;;5084467;28;19931;-73
2021/01/30 12:46:09;;;;;;;;;;;17.60;98.30;;;;;;5092470;28;19943;-74
2021/01/30 12:49:14;;;;;;;;;;;17.90;97.30;;;;;;5092641;28;20412;-74
2021/01/30 12:52:18;;;;;;;;;;;18.10;99.30;;;;;;5093548;28;19919;-73
2021/01/30 12:55:22;;;;;;;;;;;18.20;99.10;;;;;;5093191;28;19939;-73
2021/01/30 12:58:28;;;;;;;;;;;17.40;97.90;;;;;;5091153;28;19916;-74
2021/01/30 13:01:32;;;;;;;;;;;16.90;99.90;;;;;;5082506;28;19934;-74
2021/01/30 13:04:36;;;;;;;;;;;16.50;99.90;;;;;;5082389;28;19920;-74
2021/01/30 13:07:40;;;;;;;;;;;15.70;99.90;;;;;;5091869;28;19923;-73
2021/01/30 13:10:44;;;;;;;;;;;15.60;99.90;;;;;;5094910;28;20577;-74
2021/01/30 13:13:48;;;;;;;;;;;15.50;99.90;;;;;;5093466;28;19912;-73
2021/01/30 13:16:52;;;;;;;;;;;15.20;99.90;;;;;;5091718;28;19923;-73
2021/01/30 13:19:56;;;;;;;;;;;15.40;99.90;;;;;;5080198;28;20488;-73
2021/01/30 13:23:11;;;;;;;;;;;15.60;99.90;;;;;;5080368;28;19919;-74
2021/01/30 13:26:15;;;;;;;;;;;15.70;99.90;;;;;;5090411;28;19919;-73
2021/01/30 13:29:20;;;;;;;;;;;15.70;99.90;;;;;;5091729;28;20381;-73
2021/01/30 13:32:24;;;;;;;;;;;15.50;99.90;;;;;;5092135;28;20271;-73
2021/01/30 13:35:29;;;;;;;;;;;14.90;99.90;;;;;;5090263;28;19915;-73
2021/01/30 13:38:33;;;;;;;;;;;14.70;99.90;;;;;;5091115;28;19915;-74
2021/01/30 13:41:37;;;;;;;;;;;14.60;99.90;;;;;;5090987;28;19923;-74
2021/01/30 13:44:42;;;;;;;;;;;15.10;99.90;;;;;;5092361;28;21306;-73
2021/01/30 13:47:46;;;;;;;;;;;15.00;99.90;;;;;;5092145;28;20435;-72
2021/01/30 13:50:51;;;;;;;;;;;15.10;99.90;;;;;;5078648;28;20617;-73
2021/01/30 13:53:55;;;;;;;;;;;14.10;99.90;;;;;;5091124;28;19938;-73
2021/01/30 13:57:04;;;;;;;;;;;14.10;99.90;;;;;;5090154;28;19923;-73
2021/01/30 14:00:10;;;;;;;;;;;14.10;99.90;;;;;;5090339;28;19994;-73
2021/01/30 14:03:14;;;;;;;;;;;14.10;99.90;;;;;;5083290;28;19919;-73
2021/01/30 14:06:18;;;;;;;;;;;14.00;99.90;;;;;;5091477;28;20488;-73
2021/01/30 14:09:22;;;;;;;;;;;14.00;99.90;;;;;;5090314;28;19919;-74
2021/01/30 14:12:26;;;;;;;;;;;13.80;99.90;;;;;;5091467;28;19919;-73
2021/01/30 14:15:30;;;;;;;;;;;13.70;99.90;;;;;;5090306;28;20275;-72
2021/01/30 14:18:35;;;;;;;;;;;13.60;99.90;;;;;;5090889;28;20440;-73
2021/01/30 14:21:40;;;;;;;;;;;13.40;99.90;;;;;;5078885;28;20290;-72
2021/01/30 14:24:44;;;;;;;;;;;13.30;99.90;;;;;;5088796;28;19919;-73
2021/01/30 14:27:49;;;;;;;;;;;13.20;99.90;;;;;;5090513;28;20332;-74
2021/01/30 14:30:53;;;;;;;;;;;13.10;99.90;;;;;;5089351;28;19927;-73
2021/01/30 14:33:57;;;;;;;;;;;13.00;99.90;;;;;;5091354;28;19919;-73
2021/01/30 14:37:01;;;;;;;;;;;12.90;99.90;;;;;;5090196;28;19939;-74
2021/01/30 14:40:06;;;;;;;;;;;12.80;99.90;;;;;;5089945;28;19919;-73
2021/01/30 14:43:11;;;;;;;;;;;12.80;99.90;;;;;;5091213;28;19949;-73
2021/01/30 14:46:14;;;;;;;;;;;12.80;99.90;;;;;;5089657;28;19931;-73
2021/01/30 14:49:18;;;;;;;;;;;12.80;99.90;;;;;;5079029;28;20280;-74
2021/01/30 14:52:22;;;;;;;;;;;12.80;99.90;;;;;;5091484;28;19931;-74
2021/01/30 14:55:26;;;;;;;;;;;12.80;99.90;;;;;;5090420;28;19923;-73
2021/01/30 14:58:30;;;;;;;;;;;12.80;99.90;;;;;;5088585;28;20385;-73
2021/01/30 15:01:35;;;;;;;;;;;12.80;99.90;;;;;;5088413;28;19923;-74
2021/01/30 15:04:39;;;;;;;;;;;12.90;99.90;;;;;;5090890;28;19919;-74
2021/01/30 15:07:42;;;;;;;;;;;12.80;99.90;;;;;;5090298;28;19912;-73
2021/01/30 15:10:46;;;;;;;;;;;12.80;99.90;;;;;;5089995;28;19919;-74
2021/01/30 15:13:51;;;;;;;;;;;12.80;99.90;;;;;;5090431;28;20363;-73
2021/01/30 15:16:55;;;;;;;;;;;12.80;99.90;;;;;;5089339;28;20402;-73
2021/01/30 15:19:59;;;;;;;;;;;12.60;99.90;;;;;;5079353;28;19990;-73
2021/01/30 15:23:04;;;;;;;;;;;12.70;99.90;;;;;;5098412;28;19920;-74
2021/01/30 15:26:08;;;;;;;;;;;12.60;99.90;;;;;;5094535;28;19935;-74
2021/01/30 15:29:12;;;;;;;;;;;12.50;99.90;;;;;;5090155;28;19923;-74
2021/01/30 15:32:17;;;;;;;;;;;12.60;99.90;;;;;;5078794;28;20401;-74
2021/01/30 15:35:22;;;;;;;;;;;12.70;99.90;;;;;;5089822;28;19919;-72
2021/01/30 15:38:25;;;;;;;;;;;12.80;99.90;;;;;;5090161;28;19931;-73
2021/01/30 15:41:29;;;;;;;;;;;12.70;99.90;;;;;;5083630;28;19923;-73
2021/01/30 15:44:33;;;;;;;;;;;12.80;99.90;;;;;;5089952;28;19923;-73
2021/01/30 15:47:37;;;;;;;;;;;12.70;99.90;;;;;;5078967;28;19923;-71
2021/01/30 15:50:42;;;;;;;;;;;12.70;99.90;;;;;;5079312;28;19919;-73
2021/01/30 15:53:47;;;;;;;;;;;12.70;99.90;;;;;;5091909;28;19920;-73
2021/01/30 15:56:51;;;;;;;;;;;12.80;99.90;;;;;;5092682;28;19912;-73
2021/01/30 15:59:55;;;;;;;;;;;12.80;99.90;;;;;;5100687;28;19923;-73
2021/01/30 16:03:00;;;;;;;;;;;12.80;99.90;;;;;;5094424;28;19924;-73
2021/01/30 16:06:05;;;;;;;;;;;12.70;99.90;;;;;;5085442;28;19919;-73
2021/01/30 16:09:09;;;;;;;;;;;12.80;99.90;;;;;;5094127;28;19919;-72
2021/01/30 16:12:13;;;;;;;;;;;12.80;99.90;;;;;;5093599;28;19931;-73
2021/01/30 16:15:20;;;;;;;;;;;12.80;99.90;;;;;;5092737;28;19938;-73
2021/01/30 16:18:25;;;;;;;;;;;12.80;99.90;;;;;;5106784;27;20406;-73
2021/01/30 16:21:29;;;;;;;;;;;12.70;99.90;;;;;;5080662;28;19926;-73
2021/01/30 16:24:33;;;;;;;;;;;12.60;99.90;;;;;;5093063;28;19919;-72
2021/01/30 16:27:37;;;;;;;;;;;12.50;99.90;;;;;;5095107;28;19923;-73
2021/01/30 16:30:41;;;;;;;;;;;12.30;99.90;;;;;;5085050;28;19919;-73
2021/01/30 16:33:45;;;;;;;;;;;12.30;99.90;;;;;;5093671;28;19920;-74
2021/01/30 16:36:50;;;;;;;;;;;12.50;99.90;;;;;;5093431;28;19919;-73
2021/01/30 16:39:54;;;;;;;;;;;12.40;99.90;;;;;;5093740;28;19927;-73
2021/01/30 16:42:58;;;;;;;;;;;12.50;99.90;;;;;;5094020;28;19943;-72
2021/01/30 16:46:12;;;;;;;;;;;12.40;99.90;;;;;;5092236;28;19931;-74
2021/01/30 16:49:16;;;;;;;;;;;12.40;99.90;;;;;;5082233;28;19924;-73
2021/01/30 16:52:20;;;;;;;;;;;12.50;99.90;;;;;;5092931;28;20382;-73
2021/01/30 16:55:24;;;;;;;;;;;12.50;99.90;;;;;;5092505;28;19936;-73
2021/01/30 16:58:29;;;;;;;;;;;12.50;99.90;;;;;;5097453;28;19986;-73
2021/01/30 17:01:33;;;;;;;;;;;12.40;99.90;;;;;;5090569;28;19919;-74
2021/01/30 17:04:36;;;;;;;;;;;12.40;99.90;;;;;;5093232;28;19919;-72
2021/01/30 17:07:41;;;;;;;;;;;12.40;99.90;;;;;;5092545;28;19912;-72
2021/01/30 17:10:45;;;;;;;;;;;12.40;99.90;;;;;;5092638;28;19919;-73
2021/01/30 17:13:49;;;;;;;;;;;12.40;99.90;;;;;;5092538;28;19919;-74
2021/01/30 17:16:53;;;;;;;;;;;12.40;99.90;;;;;;5092529;28;19920;-73
2021/01/30 17:19:57;;;;;;;;;;;12.30;99.90;;;;;;5081964;28;19920;-74
2021/01/30 17:23:02;;;;;;;;;;;12.20;99.90;;;;;;5092543;28;19912;-73
2021/01/30 17:26:06;;;;;;;;;;;12.20;99.90;;;;;;5092768;28;20386;-74
2021/01/30 17:29:11;;;;;;;;;;;12.20;99.90;;;;;;5093117;28;20284;-74
2021/01/30 17:32:15;;;;;;;;;;;12.10;99.90;;;;;;5086478;28;19912;-71
2021/01/30 17:35:19;;;;;;;;;;;12.00;99.90;;;;;;5092236;28;19919;-72
2021/01/30 17:38:23;;;;;;;;;;;12.00;99.90;;;;;;5092851;28;20282;-74
2021/01/30 17:41:27;;;;;;;;;;;12.00;99.90;;;;;;5087582;28;19923;-73
2021/01/30 17:44:31;;;;;;;;;;;11.90;99.90;;;;;;5092008;28;19939;-73
2021/01/30 17:47:35;;;;;;;;;;;11.70;99.90;;;;;;5080147;28;19923;-74
2021/01/30 17:50:41;;;;;;;;;;;11.70;99.90;;;;;;5091967;28;19923;-73
2021/01/30 17:53:45;;;;;;;;;;;11.60;99.90;;;;;;5088792;28;19920;-73
2021/01/30 17:56:49;;;;;;;;;;;11.70;99.90;;;;;;5092483;28;19927;-72
2021/01/30 17:59:53;;;;;;;;;;;11.70;99.90;;;;;;5091567;28;19916;-72
2021/01/30 18:02:57;;;;;;;;;;;12.10;99.90;;;;;;5091696;28;19919;-72
2021/01/30 18:06:01;;;;;;;;;;;12.30;99.90;;;;;;5078426;28;19920;-72
2021/01/30 18:09:05;;;;;;;;;;;12.40;99.90;;;;;;5092560;28;19966;-73
2021/01/30 18:12:09;;;;;;;;;;;12.50;99.90;;;;;;5090315;28;19919;-73
2021/01/30 18:15:15;;;;;;;;;;;12.60;99.90;;;;;;5091728;28;19919;-73